createdAt,value
2019-05-13T00:01:37.930Z,40.40
2019-05-13T00:04:33.706Z,39.60
2019-05-13T00:07:30.399Z,39.80
2019-05-13T00:10:24.560Z,39.80
2019-05-13T00:13:18.860Z,39.70
2019-05-13T00:16:14.123Z,39.70
2019-05-13T00:19:08.820Z,38.90
2019-05-13T00:22:03.772Z,39.20
2019-05-13T00:24:58.607Z,38.70
2019-05-13T00:27:53.664Z,38.60
2019-05-13T00:30:48.575Z,38.80
2019-05-13T00:33:44.563Z,38.20
2019-05-13T00:36:38.766Z,38.00
2019-05-13T00:39:33.776Z,38.00
2019-05-13T00:42:28.414Z,38.20
2019-05-13T00:45:24.518Z,37.90
2019-05-13T00:48:18.669Z,38.20
2019-05-13T00:51:14.150Z,38.40
2019-05-13T00:54:10.571Z,38.70
2019-05-13T00:57:04.837Z,38.70
2019-05-13T00:59:59.145Z,38.70
2019-05-13T01:02:53.699Z,38.70
2019-05-13T01:05:48.511Z,38.80
2019-05-13T01:08:44.233Z,38.80
2019-05-13T01:11:39.162Z,38.80
2019-05-13T01:14:34.990Z,39.20
2019-05-13T01:17:29.705Z,38.60
2019-05-13T01:20:25.009Z,38.80
2019-05-13T01:23:19.523Z,38.70
2019-05-13T01:26:14.250Z,37.80
2019-05-13T01:29:09.183Z,39.00
2019-05-13T01:32:04.529Z,39.30
2019-05-13T01:34:59.033Z,38.80
2019-05-13T01:37:53.864Z,38.20
2019-05-13T01:40:48.519Z,38.40
2019-05-13T01:43:44.468Z,38.40
2019-05-13T01:46:38.945Z,39.00
2019-05-13T01:49:33.906Z,39.10
2019-05-13T01:52:29.811Z,38.80
2019-05-13T01:55:25.742Z,38.80
2019-05-13T01:58:23.393Z,39.00
2019-05-13T02:01:17.415Z,39.10
2019-05-13T02:04:14.021Z,39.00
2019-05-13T02:07:07.792Z,39.10
2019-05-13T02:10:04.673Z,39.10
2019-05-13T02:13:00.115Z,39.10
2019-05-13T02:16:00.524Z,39.00
2019-05-13T02:18:54.191Z,39.10
2019-05-13T02:21:48.691Z,39.10
2019-05-13T02:24:44.700Z,39.10
2019-05-13T02:27:39.903Z,39.10
2019-05-13T02:30:35.149Z,39.00
2019-05-13T02:33:33.882Z,39.00
2019-05-13T02:36:27.872Z,39.00
2019-05-13T02:39:22.518Z,39.00
2019-05-13T02:42:17.391Z,38.90
2019-05-13T02:45:12.540Z,38.80
2019-05-13T02:48:12.498Z,38.80
2019-05-13T02:51:44.201Z,39.00
2019-05-13T03:18:52.128Z,41.30
2019-05-13T03:35:16.893Z,39.80
2019-05-13T03:39:05.236Z,40.40
2019-05-13T03:41:54.054Z,40.20
2019-05-13T03:44:57.327Z,39.80
2019-05-13T03:56:18.046Z,39.70
2019-05-13T03:59:17.782Z,39.60
2019-05-13T04:02:52.585Z,39.60
2019-05-13T04:06:05.575Z,39.30
2019-05-13T04:13:04.022Z,39.30
2019-05-13T04:15:58.899Z,39.30
2019-05-13T04:18:53.832Z,39.30
2019-05-13T04:21:52.841Z,39.30
2019-05-13T04:24:47.679Z,38.80
2019-05-13T04:27:42.948Z,38.90
2019-05-13T04:30:52.366Z,39.20
2019-05-13T04:33:45.189Z,39.00
2019-05-13T04:36:42.765Z,38.90
2019-05-13T04:39:47.490Z,38.90
2019-05-13T04:42:36.684Z,38.80
2019-05-13T04:45:32.948Z,38.70
2019-05-13T04:48:27.079Z,38.50
2019-05-13T04:51:23.229Z,38.30
2019-05-13T04:54:22.569Z,37.90
2019-05-13T04:57:17.484Z,38.60
2019-05-13T05:03:57.501Z,37.90
2019-05-13T05:07:22.422Z,38.10
2019-05-13T05:10:53.949Z,38.10
2019-05-13T05:14:42.803Z,37.30
2019-05-13T05:18:12.911Z,38.00
2019-05-13T05:21:21.669Z,37.30
2019-05-13T05:28:12.145Z,37.50
2019-05-13T05:31:47.434Z,37.20
2019-05-13T05:35:24.091Z,37.50
2019-05-13T05:39:07.959Z,37.00
2019-05-13T05:42:11.240Z,37.50
2019-05-13T05:45:02.987Z,37.70
2019-05-13T05:48:01.589Z,37.70
2019-05-13T05:50:58.352Z,37.60
2019-05-13T05:54:02.354Z,37.80
2019-05-13T05:57:01.142Z,37.60
2019-05-13T06:00:02.361Z,37.70
2019-05-13T06:03:02.513Z,37.30
2019-05-13T06:06:06.084Z,36.60
2019-05-13T06:09:06.164Z,36.60
2019-05-13T06:12:06.445Z,35.60
2019-05-13T06:15:04.292Z,36.00
2019-05-13T06:18:02.287Z,35.90
2019-05-13T06:20:58.540Z,36.30
2019-05-13T06:23:54.154Z,36.50
2019-05-13T06:26:53.435Z,36.70
2019-05-13T06:29:52.814Z,36.60
2019-05-13T06:32:48.798Z,35.90
2019-05-13T06:35:45.743Z,35.90
2019-05-13T06:38:47.853Z,36.30
2019-05-13T06:41:47.481Z,36.10
2019-05-13T06:44:43.160Z,36.10
2019-05-13T06:47:37.907Z,35.90
2019-05-13T06:50:32.742Z,36.00
2019-05-13T06:53:28.375Z,35.90
2019-05-13T06:56:25.147Z,36.10
2019-05-13T06:59:22.578Z,36.00
2019-05-13T07:02:24.473Z,35.90
2019-05-13T07:05:22.478Z,35.70
2019-05-13T07:08:31.415Z,35.60
2019-05-13T07:11:38.606Z,35.50
2019-05-13T07:14:41.141Z,35.60
2019-05-13T07:17:36.948Z,35.20
2019-05-13T07:20:32.255Z,35.30
2019-05-13T07:23:31.850Z,35.10
2019-05-13T07:26:28.127Z,35.40
2019-05-13T07:29:32.771Z,35.50
2019-05-13T07:32:31.431Z,35.50
2019-05-13T07:35:37.071Z,35.30
2019-05-13T07:38:25.722Z,35.30
2019-05-13T07:41:36.434Z,35.20
2019-05-13T07:44:28.121Z,35.10
2019-05-13T07:47:27.586Z,35.40
2019-05-13T07:50:24.431Z,35.70
2019-05-13T07:53:37.024Z,35.80
2019-05-13T07:56:42.558Z,35.80
2019-05-13T07:59:42.008Z,36.10
2019-05-13T08:02:42.262Z,35.60
2019-05-13T08:05:42.080Z,35.30
2019-05-13T08:08:38.713Z,35.10
2019-05-13T08:11:53.707Z,35.00
2019-05-13T08:14:32.380Z,35.00
2019-05-13T08:17:27.620Z,35.40
2019-05-13T08:20:22.542Z,35.30
2019-05-13T08:23:18.530Z,35.30
2019-05-13T08:26:13.386Z,35.40
2019-05-13T08:29:11.312Z,35.40
2019-05-13T08:32:04.343Z,35.40
2019-05-13T08:35:07.032Z,35.50
2019-05-13T08:38:01.412Z,35.40
2019-05-13T08:40:58.509Z,35.40
2019-05-13T08:43:55.143Z,35.30
2019-05-13T08:46:52.424Z,35.20
2019-05-13T08:49:46.835Z,35.30
2019-05-13T08:52:43.332Z,35.40
2019-05-13T08:55:38.267Z,35.50
2019-05-13T08:58:34.637Z,35.40
2019-05-13T09:01:32.040Z,35.40
2019-05-13T09:04:31.573Z,35.40
2019-05-13T09:07:27.228Z,35.70
2019-05-13T09:10:22.897Z,35.80
2019-05-13T09:13:17.350Z,35.80
2019-05-13T09:16:13.345Z,35.70
2019-05-13T09:19:08.488Z,35.50
2019-05-13T09:22:14.468Z,35.60
2019-05-13T09:25:12.351Z,35.90
2019-05-13T09:28:08.854Z,36.10
2019-05-13T09:31:04.460Z,36.00
2019-05-13T09:34:01.410Z,36.10
2019-05-13T09:37:02.615Z,36.10
2019-05-13T09:40:02.368Z,36.30
2019-05-13T09:42:59.033Z,35.40
2019-05-13T09:45:54.327Z,34.90
2019-05-13T09:48:48.611Z,34.60
2019-05-13T09:51:46.101Z,34.30
2019-05-13T09:54:44.746Z,34.00
2019-05-13T09:57:42.428Z,33.90
2019-05-13T10:00:42.142Z,33.80
2019-05-13T10:03:53.266Z,33.80
2019-05-13T10:06:36.886Z,33.80
2019-05-13T10:09:33.139Z,33.80
2019-05-13T10:12:31.602Z,33.40
2019-05-13T10:15:28.387Z,33.40
2019-05-13T10:18:25.036Z,33.20
2019-05-13T10:21:21.842Z,33.20
2019-05-13T10:24:17.621Z,33.10
2019-05-13T10:27:48.194Z,33.20
2019-05-13T10:30:47.594Z,33.10
2019-05-13T10:34:02.618Z,33.10
2019-05-13T10:43:46.732Z,33.20
2019-05-13T10:46:42.654Z,33.00
2019-05-13T10:49:41.873Z,33.10
2019-05-13T10:52:35.183Z,32.90
2019-05-13T10:55:42.296Z,32.90
2019-05-13T10:58:42.680Z,32.90
2019-05-13T11:01:47.912Z,32.90
2019-05-13T11:04:45.241Z,33.00
2019-05-13T11:07:45.327Z,33.00
2019-05-13T11:10:42.153Z,33.00
2019-05-13T11:13:54.088Z,33.10
2019-05-13T11:16:35.573Z,33.10
2019-05-13T11:19:36.777Z,33.10
2019-05-13T11:22:32.728Z,33.00
2019-05-13T11:25:32.427Z,33.30
2019-05-13T11:28:28.933Z,33.30
2019-05-13T11:31:27.802Z,33.50
2019-05-13T11:34:25.057Z,33.60
2019-05-13T11:37:36.340Z,33.70
2019-05-13T11:40:36.663Z,33.70
2019-05-13T11:43:44.445Z,33.60
2019-05-13T11:46:47.992Z,33.70
2019-05-13T11:49:56.451Z,33.80
2019-05-13T11:53:30.133Z,33.80
2019-05-13T11:56:11.470Z,33.80
2019-05-13T11:59:15.677Z,33.70
2019-05-13T12:02:13.625Z,33.80
2019-05-13T12:05:12.123Z,33.90
2019-05-13T12:08:39.022Z,33.90
2019-05-13T12:11:34.098Z,33.90
2019-05-13T12:15:16.121Z,33.90
2019-05-13T12:21:30.972Z,34.10
2019-05-13T12:25:33.337Z,34.20
2019-05-13T12:28:37.361Z,34.20
2019-05-13T12:31:33.559Z,34.10
2019-05-13T12:34:47.679Z,34.20
2019-05-13T12:37:43.903Z,34.20
2019-05-13T12:40:42.965Z,34.20
2019-05-13T12:43:53.954Z,34.40
2019-05-13T12:46:50.398Z,34.30
2019-05-13T12:49:50.488Z,34.30
2019-05-13T12:52:51.568Z,34.50
2019-05-13T12:55:53.758Z,34.30
2019-05-13T12:58:46.434Z,34.40
2019-05-13T13:01:41.618Z,34.40
2019-05-13T13:04:37.732Z,34.20
2019-05-13T13:07:40.830Z,34.30
2019-05-13T13:10:28.825Z,34.30
2019-05-13T13:13:51.950Z,34.20
2019-05-13T13:16:21.578Z,34.10
2019-05-13T13:19:17.552Z,34.10
2019-05-13T13:22:13.762Z,34.10
2019-05-13T13:25:13.211Z,34.20
2019-05-13T13:28:14.244Z,34.10
2019-05-13T13:31:06.967Z,34.10
2019-05-13T13:34:12.199Z,34.00
2019-05-13T13:37:05.282Z,34.10
2019-05-13T13:40:03.556Z,34.20
2019-05-13T13:43:05.229Z,34.20
2019-05-13T13:46:32.763Z,34.10
2019-05-13T13:48:57.563Z,34.20
2019-05-13T13:51:57.058Z,34.30
2019-05-13T13:55:03.097Z,34.40
2019-05-13T13:57:56.686Z,34.30
2019-05-13T14:01:06.028Z,34.30
2019-05-13T14:03:53.626Z,34.40
2019-05-13T14:09:51.340Z,34.40
2019-05-13T14:12:48.822Z,34.40
2019-05-13T14:15:45.780Z,34.50
2019-05-13T14:18:42.143Z,34.50
2019-05-13T14:21:38.855Z,34.50
2019-05-13T14:24:35.637Z,34.50
2019-05-13T14:27:35.764Z,34.50
2019-05-13T14:30:33.455Z,34.60
2019-05-13T14:33:32.749Z,34.50
2019-05-13T14:36:28.391Z,34.70
2019-05-13T14:39:24.361Z,34.70
2019-05-13T14:42:22.746Z,34.70
2019-05-13T14:45:21.330Z,34.70
2019-05-13T14:48:14.805Z,34.70
2019-05-13T14:51:12.391Z,34.90
2019-05-13T14:54:10.912Z,34.90
2019-05-13T14:57:07.392Z,34.90
2019-05-13T15:00:04.025Z,35.00
2019-05-13T15:03:03.096Z,34.90
2019-05-13T15:06:01.560Z,34.90
2019-05-13T15:08:58.039Z,35.00
2019-05-13T15:11:56.604Z,35.00
2019-05-13T15:14:53.236Z,35.10
2019-05-13T15:17:51.890Z,35.10
2019-05-13T15:20:47.716Z,35.10
2019-05-13T15:23:43.918Z,35.20
2019-05-13T15:26:38.724Z,35.20
2019-05-13T15:29:34.931Z,35.20
2019-05-13T15:32:32.593Z,35.30
2019-05-13T15:35:28.146Z,35.30
2019-05-13T15:38:24.177Z,35.30
2019-05-13T15:41:20.163Z,35.30
2019-05-13T15:44:15.397Z,35.30
2019-05-13T15:47:22.688Z,35.40
2019-05-13T15:50:08.429Z,35.40
2019-05-13T15:53:05.259Z,35.40
2019-05-13T15:56:02.567Z,35.40
2019-05-13T15:58:58.283Z,35.50
2019-05-13T16:01:55.377Z,35.60
2019-05-13T16:05:00.383Z,35.60
2019-05-13T16:07:51.648Z,35.60
2019-05-13T16:10:47.684Z,35.50
2019-05-13T16:13:42.838Z,35.60
2019-05-13T16:16:38.536Z,35.60
2019-05-13T16:19:36.852Z,35.60
2019-05-13T16:22:33.208Z,35.60
2019-05-13T16:25:28.464Z,35.70
2019-05-13T16:28:23.960Z,35.70
2019-05-13T16:31:20.543Z,35.70
2019-05-13T16:34:16.455Z,35.70
2019-05-13T16:37:12.338Z,35.90
2019-05-13T16:40:11.650Z,35.80
2019-05-13T16:43:06.411Z,35.80
2019-05-13T16:46:02.289Z,35.90
2019-05-13T16:48:57.528Z,35.80
2019-05-13T16:51:54.546Z,35.80
2019-05-13T16:54:52.724Z,35.80
2019-05-13T16:57:47.959Z,35.80
2019-05-13T17:00:43.266Z,35.80
2019-05-13T17:03:41.493Z,35.80
2019-05-13T17:06:38.310Z,35.90
2019-05-13T17:09:36.945Z,34.80
2019-05-13T17:12:31.823Z,34.00
2019-05-13T17:15:26.590Z,33.30
2019-05-13T17:18:23.769Z,32.70
2019-05-13T17:21:23.927Z,32.40
2019-05-13T17:24:22.396Z,31.90
2019-05-13T17:27:18.183Z,31.70
2019-05-13T17:30:13.711Z,31.20
2019-05-13T17:33:11.774Z,31.20
2019-05-13T17:36:09.321Z,30.90
2019-05-13T17:39:06.447Z,30.90
2019-05-13T17:42:04.005Z,30.60
2019-05-13T17:45:02.348Z,30.50
2019-05-13T17:47:58.471Z,30.40
2019-05-13T17:50:54.135Z,30.20
2019-05-13T17:53:52.005Z,30.10
2019-05-13T17:56:47.486Z,30.10
2019-05-13T17:59:48.849Z,30.00
2019-05-13T18:02:44.554Z,30.10
2019-05-13T18:05:45.790Z,30.00
2019-05-13T18:08:55.022Z,30.00
2019-05-13T18:12:33.885Z,30.00
2019-05-13T18:15:54.157Z,30.00
2019-05-13T18:30:01.933Z,30.00
2019-05-13T18:42:42.503Z,30.10
2019-05-13T18:46:01.807Z,30.30
2019-05-13T20:12:11.213Z,30.30
2019-05-13T20:27:15.532Z,31.30
2019-05-13T21:05:34.492Z,31.80
2019-05-13T21:08:52.022Z,32.00
2019-05-13T21:15:34.756Z,32.30
2019-05-13T21:18:57.909Z,32.70
2019-05-13T21:22:27.693Z,33.20
2019-05-13T21:44:38.883Z,32.80
2019-05-13T21:52:23.979Z,32.60
2019-05-13T23:39:01.073Z,30.80
2019-05-13T23:46:11.759Z,31.40
2019-05-13T23:49:11.888Z,31.50
2019-05-13T23:52:13.035Z,31.50
2019-05-13T23:56:21.625Z,31.70
2019-05-13T23:59:31.256Z,31.70
